createdAt,value
2022-10-08T00:01:21.295Z,100280.44
2022-10-08T00:04:24.508Z,100267.59
2022-10-08T00:07:27.718Z,100266.25
2022-10-08T00:10:33.097Z,100262.78
2022-10-08T00:13:41.846Z,100260.53
2022-10-08T00:16:45.025Z,100253.78
2022-10-08T00:19:48.288Z,100254.94
2022-10-08T00:22:51.586Z,100246.22
2022-10-08T00:25:56.223Z,100241.44
2022-10-08T00:29:01.749Z,100244.91
2022-10-08T00:32:05.039Z,100244.06
2022-10-08T00:35:08.726Z,100237.47
2022-10-08T00:38:11.912Z,100238.44
2022-10-08T00:41:20.875Z,100242.41
2022-10-08T00:45:00.657Z,100241.13
2022-10-08T00:48:05.393Z,100248.50
2022-10-08T00:51:09.583Z,100247.34
2022-10-08T00:54:14.464Z,100241.44
2022-10-08T00:57:19.826Z,100243.34
2022-10-08T01:00:25.586Z,100238.75
2022-10-08T01:03:28.789Z,100225.47
2022-10-08T01:06:39.105Z,100219.69
2022-10-08T01:09:48.003Z,100223.84
2022-10-08T01:13:05.562Z,100219.34
2022-10-08T01:16:19.740Z,100215.56
2022-10-08T01:19:49.100Z,100205.03
2022-10-08T01:23:10.265Z,100209.16
2022-10-08T01:26:37.229Z,100211.47
2022-10-08T01:29:47.689Z,100211.47
2022-10-08T01:32:56.334Z,100201.91
2022-10-08T01:36:04.296Z,100203.06
2022-10-08T01:39:11.324Z,100206.16
2022-10-08T01:42:15.250Z,100197.13
2022-10-08T01:45:25.121Z,100203.88
2022-10-08T01:48:34.141Z,100207.84
2022-10-08T01:51:41.866Z,100196.97
2022-10-08T01:54:49.878Z,100191.34
2022-10-08T01:57:57.538Z,100195.13
2022-10-08T02:01:11.630Z,100203.88
2022-10-08T02:04:32.547Z,100208.00
2022-10-08T02:07:38.977Z,100209.16
2022-10-08T02:10:42.820Z,100213.94
2022-10-08T02:13:46.538Z,100216.72
2022-10-08T02:16:55.879Z,100209.34
2022-10-08T02:20:05.844Z,100209.97
2022-10-08T02:23:14.761Z,100209.34
2022-10-08T02:26:23.386Z,100209.34
2022-10-08T02:29:33.015Z,100208.84
2022-10-08T02:32:48.943Z,100205.41
2022-10-08T02:35:54.848Z,100203.41
2022-10-08T02:39:04.034Z,100201.91
2022-10-08T02:42:12.226Z,100198.44
2022-10-08T02:45:19.581Z,100201.22
2022-10-08T02:48:29.393Z,100194.16
2022-10-08T02:51:35.431Z,100195.81
2022-10-08T02:54:41.423Z,100198.91
2022-10-08T02:57:47.661Z,100201.84
2022-10-08T03:00:56.031Z,100204.19
2022-10-08T03:04:05.564Z,100201.66
2022-10-08T03:07:10.382Z,100204.50
2022-10-08T03:10:14.443Z,100217.78
2022-10-08T03:13:19.574Z,100199.53
2022-10-08T03:16:25.502Z,100203.84
2022-10-08T03:19:30.372Z,100206.31
2022-10-08T03:22:35.003Z,100205.81
2022-10-08T03:25:38.214Z,100200.22
2022-10-08T03:28:41.489Z,100202.03
2022-10-08T03:31:44.765Z,100202.50
2022-10-08T03:34:49.368Z,100200.19
2022-10-08T03:37:54.046Z,100192.00
2022-10-08T03:41:00.252Z,100185.13
2022-10-08T03:44:03.494Z,100191.06
2022-10-08T03:47:06.904Z,100190.25
2022-10-08T03:50:11.727Z,100192.00
2022-10-08T03:53:15.015Z,100190.72
2022-10-08T03:56:20.168Z,100185.78
2022-10-08T03:59:23.612Z,100180.28
2022-10-08T04:02:27.006Z,100184.44
2022-10-08T04:05:31.796Z,100179.34
2022-10-08T04:08:35.662Z,100183.59
2022-10-08T04:11:39.163Z,100184.59
2022-10-08T04:14:42.424Z,100176.22
2022-10-08T04:17:45.804Z,100174.25
2022-10-08T04:20:50.435Z,100178.44
2022-10-08T04:23:53.675Z,100173.78
2022-10-08T04:26:57.084Z,100172.50
2022-10-08T04:30:00.269Z,100180.34
2022-10-08T04:33:03.547Z,100173.44
2022-10-08T04:36:11.151Z,100175.25
2022-10-08T04:39:14.364Z,100175.41
2022-10-08T04:42:17.759Z,100171.31
2022-10-08T04:45:20.950Z,100166.66
2022-10-08T04:48:24.174Z,100167.97
2022-10-08T04:51:29.431Z,100164.72
2022-10-08T04:54:32.706Z,100168.97
2022-10-08T04:57:35.868Z,100167.97
2022-10-08T05:00:39.169Z,100162.69
2022-10-08T05:03:43.993Z,100164.38
2022-10-08T05:06:48.571Z,100171.59
2022-10-08T05:09:51.834Z,100177.53
2022-10-08T05:12:56.267Z,100169.88
2022-10-08T05:16:04.587Z,100177.59
2022-10-08T05:19:07.951Z,100178.06
2022-10-08T05:22:12.610Z,100185.19
2022-10-08T05:25:15.971Z,100185.91
2022-10-08T05:28:19.209Z,100181.97
2022-10-08T05:31:22.527Z,100189.03
2022-10-08T05:34:26.191Z,100188.25
2022-10-08T05:37:30.761Z,100196.00
2022-10-08T05:40:34.041Z,100190.94
2022-10-08T05:43:37.335Z,100193.09
2022-10-08T05:46:40.990Z,100189.31
2022-10-08T05:49:44.279Z,100200.22
2022-10-08T05:52:49.290Z,100202.25
2022-10-08T05:56:01.084Z,100198.56
2022-10-08T05:59:04.322Z,100201.00
2022-10-08T06:02:08.147Z,100200.50
2022-10-08T06:05:11.488Z,100208.78
2022-10-08T06:08:16.090Z,100204.06
2022-10-08T06:11:19.354Z,100196.56
2022-10-08T06:14:24.389Z,100204.63
2022-10-08T06:17:27.569Z,100204.84
2022-10-08T06:20:32.163Z,100215.84
2022-10-08T06:23:37.835Z,100215.66
2022-10-08T06:26:43.405Z,100225.13
2022-10-08T06:29:46.649Z,100215.72
2022-10-08T06:32:50.033Z,100221.66
2022-10-08T06:35:53.836Z,100221.34
2022-10-08T06:38:59.598Z,100218.38
2022-10-08T06:42:02.784Z,100220.13
2022-10-08T06:45:13.186Z,100221.28
2022-10-08T06:48:16.455Z,100220.78
2022-10-08T06:51:20.652Z,100211.38
2022-10-08T06:54:27.488Z,100212.00
2022-10-08T06:57:30.970Z,100201.53
2022-10-08T07:00:34.574Z,100194.03
2022-10-08T07:03:38.237Z,100197.56
2022-10-08T07:06:41.470Z,100201.66
2022-10-08T07:09:46.050Z,100198.56
2022-10-08T07:12:49.634Z,100204.97
2022-10-08T07:15:53.423Z,100205.19
2022-10-08T07:18:58.943Z,100213.00
2022-10-08T07:22:02.355Z,100210.19
2022-10-08T07:25:07.541Z,100204.47
2022-10-08T07:28:10.823Z,100196.44
2022-10-08T07:31:16.199Z,100196.22
2022-10-08T07:34:19.519Z,100185.13
2022-10-08T07:37:22.749Z,100191.84
2022-10-08T07:40:27.428Z,100190.00
2022-10-08T07:43:30.669Z,100181.06
2022-10-08T07:46:35.601Z,100176.69
2022-10-08T07:49:38.867Z,100178.81
2022-10-08T07:52:42.120Z,100191.91
2022-10-08T07:55:46.834Z,100177.88
2022-10-08T07:58:50.895Z,100191.31
2022-10-08T08:01:54.241Z,100185.50
2022-10-08T08:04:58.675Z,100184.41
2022-10-08T08:08:01.891Z,100179.00
2022-10-08T08:11:08.689Z,100175.34
2022-10-08T08:14:12.047Z,100180.63
2022-10-08T08:17:15.303Z,100174.56
2022-10-08T08:20:18.498Z,100172.19
2022-10-08T08:23:21.703Z,100171.75
2022-10-08T08:26:28.862Z,100158.88
2022-10-08T08:29:32.312Z,100166.75
2022-10-08T08:32:35.499Z,100159.72
2022-10-08T08:35:38.757Z,100152.81
2022-10-08T08:38:42.046Z,100143.97
2022-10-08T08:42:14.760Z,100151.88
2022-10-08T08:45:46.828Z,100148.38
2022-10-08T08:48:54.554Z,100154.28
2022-10-08T08:51:59.573Z,100148.44
2022-10-08T08:55:03.029Z,100144.59
2022-10-08T08:58:27.263Z,100144.09
2022-10-08T09:01:34.889Z,100145.97
2022-10-08T09:04:45.480Z,100141.38
2022-10-08T09:07:52.911Z,100130.03
2022-10-08T09:10:58.437Z,100131.78
2022-10-08T09:14:16.799Z,100125.66
2022-10-08T09:17:21.776Z,100108.66
2022-10-08T09:20:26.473Z,100113.81
2022-10-08T09:23:29.684Z,100110.34
2022-10-08T09:26:35.076Z,100098.88
2022-10-08T09:29:39.800Z,100092.66
2022-10-08T09:32:43.099Z,100087.47
2022-10-08T09:35:49.834Z,100085.16
2022-10-08T09:38:59.719Z,100080.66
2022-10-08T09:42:14.174Z,100080.41
2022-10-08T09:45:35.286Z,100068.84
2022-10-08T09:48:39.671Z,100072.44
2022-10-08T09:51:43.675Z,100062.31
2022-10-08T09:54:49.862Z,100051.59
2022-10-08T09:57:56.715Z,100055.66
2022-10-08T10:01:07.716Z,100042.78
2022-10-08T10:04:20.962Z,100044.28
2022-10-08T10:07:24.552Z,100051.97
2022-10-08T10:10:33.000Z,100037.53
2022-10-08T10:13:39.017Z,100033.13
2022-10-08T10:16:47.193Z,100022.25
2022-10-08T10:19:55.089Z,100027.34
2022-10-08T10:23:06.502Z,100011.63
2022-10-08T10:26:14.468Z,100005.81
2022-10-08T10:29:21.328Z,99995.50
2022-10-08T10:32:32.317Z,99991.28
2022-10-08T10:35:46.842Z,99983.41
2022-10-08T10:38:57.114Z,99979.56
2022-10-08T10:42:08.499Z,99973.38
2022-10-08T10:45:21.535Z,99962.31
2022-10-08T10:48:26.290Z,99972.31
2022-10-08T10:51:53.464Z,99965.25
2022-10-08T10:55:09.577Z,99956.28
2022-10-08T10:58:32.259Z,99948.53
2022-10-08T11:01:43.815Z,99945.22
2022-10-08T11:05:01.511Z,99934.63
2022-10-08T11:08:12.948Z,99941.25
2022-10-08T11:11:32.258Z,99944.72
2022-10-08T11:14:45.235Z,99932.22
2022-10-08T11:18:15.942Z,99925.53
2022-10-08T11:21:36.431Z,99917.13
2022-10-08T11:25:01.658Z,99918.09
2022-10-08T11:28:18.334Z,99910.81
2022-10-08T11:31:32.858Z,99911.84
2022-10-08T11:34:38.629Z,99899.69
2022-10-08T11:37:50.233Z,99889.13
2022-10-08T11:40:59.994Z,99885.50
2022-10-08T11:44:05.548Z,99880.50
2022-10-08T11:47:37.547Z,99875.72
2022-10-08T11:50:41.100Z,99866.44
2022-10-08T11:54:00.753Z,99861.06
2022-10-08T11:57:14.848Z,99861.94
2022-10-08T12:00:33.551Z,99856.75
2022-10-08T12:03:39.216Z,99857.50
2022-10-08T12:06:42.590Z,99852.91
2022-10-08T12:10:34.063Z,99847.22
2022-10-08T12:13:38.642Z,99849.28
2022-10-08T12:17:09.847Z,99840.28
2022-10-08T12:20:22.333Z,99830.53
2022-10-08T12:23:39.869Z,99829.06
2022-10-08T12:27:23.674Z,99830.72
2022-10-08T12:30:48.339Z,99819.84
2022-10-08T12:34:04.021Z,99817.34
2022-10-08T12:37:16.609Z,99816.66
2022-10-08T12:40:31.824Z,99817.69
2022-10-08T12:43:42.342Z,99808.44
2022-10-08T12:46:55.968Z,99801.50
2022-10-08T12:50:07.047Z,99804.53
2022-10-08T12:53:15.052Z,99796.91
2022-10-08T12:56:23.357Z,99800.19
2022-10-08T12:59:31.586Z,99797.88
2022-10-08T13:02:41.176Z,99799.00
2022-10-08T13:05:45.162Z,99786.50
2022-10-08T13:08:50.826Z,99785.25
2022-10-08T13:11:58.235Z,99780.03
2022-10-08T13:15:09.041Z,99777.25
2022-10-08T13:18:23.163Z,99769.50
2022-10-08T13:21:38.122Z,99774.16
2022-10-08T13:24:42.710Z,99764.50
2022-10-08T13:27:46.297Z,99763.03
2022-10-08T13:30:52.160Z,99760.59
2022-10-08T13:33:56.811Z,99765.03
2022-10-08T13:37:03.127Z,99761.34
2022-10-08T13:40:19.569Z,99753.78
2022-10-08T13:43:23.406Z,99759.25
2022-10-08T13:46:26.714Z,99753.50
2022-10-08T13:49:33.262Z,99755.69
2022-10-08T13:52:37.094Z,99742.91
2022-10-08T13:55:44.655Z,99741.53
2022-10-08T13:58:47.857Z,99745.56
2022-10-08T14:01:51.793Z,99735.50
2022-10-08T14:04:56.456Z,99733.44
2022-10-08T14:08:04.175Z,99729.97
2022-10-08T14:11:07.656Z,99724.34
2022-10-08T14:14:13.289Z,99718.94
2022-10-08T14:17:16.532Z,99718.78
2022-10-08T14:20:21.296Z,99728.09
2022-10-08T14:23:24.541Z,99715.16
2022-10-08T14:26:28.652Z,99713.56
2022-10-08T14:29:32.932Z,99722.50
2022-10-08T14:32:36.207Z,99722.84
2022-10-08T14:35:40.837Z,99713.97
2022-10-08T14:38:44.271Z,99711.50
2022-10-08T14:41:47.528Z,99709.31
2022-10-08T14:44:52.013Z,99712.56
2022-10-08T14:47:55.137Z,99715.06
2022-10-08T14:51:00.060Z,99720.34
2022-10-08T14:54:03.303Z,99721.31
2022-10-08T14:57:06.498Z,99724.06
2022-10-08T15:00:10.769Z,99718.84
2022-10-08T15:03:13.993Z,99714.31
2022-10-08T15:06:18.584Z,99720.63
2022-10-08T15:09:21.829Z,99723.25
2022-10-08T15:12:25.032Z,99711.66
2022-10-08T15:15:28.258Z,99713.53
2022-10-08T15:18:32.750Z,99712.47
2022-10-08T15:21:37.692Z,99711.66
2022-10-08T15:24:41.426Z,99711.78
2022-10-08T15:27:44.844Z,99720.94
2022-10-08T15:30:48.131Z,99725.34
2022-10-08T15:33:52.914Z,99722.25
2022-10-08T15:36:57.502Z,99728.38
2022-10-08T15:40:00.771Z,99729.25
2022-10-08T15:43:04.039Z,99732.97
2022-10-08T15:46:11.264Z,99732.09
2022-10-08T15:49:14.930Z,99731.06
2022-10-08T15:52:21.277Z,99729.41
2022-10-08T15:55:24.512Z,99731.81
2022-10-08T15:58:49.545Z,99722.22
2022-10-08T16:01:50.894Z,99739.00
2022-10-08T16:04:54.260Z,99740.50
2022-10-08T16:07:58.842Z,99744.19
2022-10-08T16:11:11.675Z,99741.09
2022-10-08T16:14:16.363Z,99747.78
2022-10-08T16:17:19.588Z,99755.63
2022-10-08T16:20:22.875Z,99757.78
2022-10-08T16:23:27.477Z,99762.22
2022-10-08T16:26:32.343Z,99762.78
2022-10-08T16:29:35.697Z,99767.66
2022-10-08T16:32:38.888Z,99767.22
2022-10-08T16:35:42.072Z,99771.34
2022-10-08T16:38:46.701Z,99772.66
2022-10-08T16:41:50.531Z,99768.22
2022-10-08T16:44:53.754Z,99775.25
2022-10-08T16:47:56.924Z,99777.75
2022-10-08T16:51:03.749Z,99780.75
2022-10-08T16:54:11.522Z,99774.38
2022-10-08T16:57:14.684Z,99784.25
2022-10-08T17:00:18.788Z,99793.31
2022-10-08T17:03:22.863Z,99789.94
2022-10-08T17:06:27.805Z,99792.41
2022-10-08T17:09:32.737Z,99797.63
2022-10-08T17:12:35.940Z,99795.94
2022-10-08T17:15:39.156Z,99807.00
2022-10-08T17:18:44.290Z,99796.66
2022-10-08T17:21:47.483Z,99803.44
2022-10-08T17:24:52.174Z,99803.22
2022-10-08T17:27:55.300Z,99808.16
2022-10-08T17:31:00.189Z,99804.75
2022-10-08T17:34:05.232Z,99802.50
2022-10-08T17:37:08.490Z,99797.16
2022-10-08T17:40:13.116Z,99798.03
2022-10-08T17:43:16.362Z,99803.22
2022-10-08T17:46:22.388Z,99801.75
2022-10-08T17:49:25.640Z,99800.94
2022-10-08T17:52:28.829Z,99818.63
2022-10-08T17:55:33.713Z,99816.19
2022-10-08T17:58:37.155Z,99830.88
2022-10-08T18:01:44.820Z,99826.53
2022-10-08T18:04:48.688Z,99825.94
2022-10-08T18:07:51.863Z,99838.66
2022-10-08T18:10:56.420Z,99828.38
2022-10-08T18:14:00.089Z,99829.16
2022-10-08T18:17:06.258Z,99830.19
2022-10-08T18:20:11.750Z,99826.75
2022-10-08T18:23:14.962Z,99833.91
2022-10-08T18:26:21.438Z,99840.47
2022-10-08T18:29:24.848Z,99834.28
2022-10-08T18:32:28.079Z,99840.00
2022-10-08T18:35:31.338Z,99841.00
2022-10-08T18:38:34.537Z,99846.31
2022-10-08T18:41:41.380Z,99846.59
2022-10-08T18:44:44.552Z,99848.28
2022-10-08T18:47:48.348Z,99851.81
2022-10-08T18:50:51.566Z,99850.53
2022-10-08T18:53:56.309Z,99860.50
2022-10-08T18:57:01.104Z,99862.53
2022-10-08T19:00:04.979Z,99860.66
2022-10-08T19:03:08.180Z,99862.06
2022-10-08T19:06:11.778Z,99869.03
2022-10-08T19:09:15.904Z,99873.53
2022-10-08T19:12:20.447Z,99875.16
2022-10-08T19:15:23.679Z,99877.00
2022-10-08T19:18:26.977Z,99880.41
2022-10-08T19:21:31.561Z,99883.69
2022-10-08T19:24:38.503Z,99880.75
2022-10-08T19:27:45.388Z,99880.63
2022-10-08T19:30:48.609Z,99883.41
2022-10-08T19:33:52.943Z,99881.72
2022-10-08T19:36:56.224Z,99881.09
2022-10-08T19:39:59.477Z,99889.09
2022-10-08T19:43:04.327Z,99888.59
2022-10-08T19:46:08.514Z,99892.44
2022-10-08T19:49:12.388Z,99881.28
2022-10-08T19:52:16.066Z,99887.97
2022-10-08T19:55:19.330Z,99890.78
2022-10-08T19:58:23.970Z,99896.50
2022-10-08T20:01:29.712Z,99891.00
2022-10-08T20:04:33.225Z,99894.34
2022-10-08T20:07:36.489Z,99892.75
2022-10-08T20:10:41.111Z,99892.38
2022-10-08T20:13:47.611Z,99898.56
2022-10-08T20:16:50.787Z,99899.75
2022-10-08T20:20:01.609Z,99899.66
2022-10-08T20:23:17.140Z,99903.63
2022-10-08T20:26:23.059Z,99906.16
2022-10-08T20:29:30.953Z,99903.91
2022-10-08T20:32:34.499Z,99905.09
2022-10-08T20:35:37.733Z,99917.59
2022-10-08T20:38:42.192Z,99913.66
2022-10-08T20:41:45.782Z,99913.19
2022-10-08T20:44:50.437Z,99915.47
2022-10-08T20:47:53.567Z,99918.41
2022-10-08T20:51:02.993Z,99913.28
2022-10-08T20:54:08.651Z,99915.16
2022-10-08T20:57:11.879Z,99915.59
2022-10-08T21:00:16.956Z,99919.69
2022-10-08T21:03:20.269Z,99919.63
2022-10-08T21:06:25.893Z,99927.09
2022-10-08T21:09:29.153Z,99927.66
2022-10-08T21:12:33.412Z,99930.63
2022-10-08T21:15:37.991Z,99923.16
2022-10-08T21:18:41.518Z,99918.75
2022-10-08T21:21:44.679Z,99923.66
2022-10-08T21:24:47.880Z,99915.34
2022-10-08T21:27:51.020Z,99919.78
2022-10-08T21:30:55.855Z,99918.66
2022-10-08T21:33:59.577Z,99914.53
2022-10-08T21:37:03.209Z,99914.91
2022-10-08T21:40:07.182Z,99921.78
2022-10-08T21:43:10.391Z,99921.91
2022-10-08T21:46:16.647Z,99924.06
2022-10-08T21:49:21.107Z,99913.19
2022-10-08T21:52:24.334Z,99919.97
2022-10-08T21:55:27.781Z,99920.84
2022-10-08T21:58:32.775Z,99923.16
2022-10-08T22:01:39.377Z,99920.06
2022-10-08T22:04:42.704Z,99915.06
2022-10-08T22:07:45.883Z,99916.56
2022-10-08T22:10:49.508Z,99914.06
2022-10-08T22:13:53.359Z,99912.66
2022-10-08T22:16:58.047Z,99908.31
2022-10-08T22:20:01.572Z,99911.69
2022-10-08T22:23:04.853Z,99899.94
2022-10-08T22:26:10.083Z,99897.41
2022-10-08T22:29:13.778Z,99898.91
2022-10-08T22:32:18.600Z,99896.03
2022-10-08T22:35:21.896Z,99897.81
2022-10-08T22:38:25.074Z,99898.47
2022-10-08T22:41:30.113Z,99899.75
2022-10-08T22:44:33.325Z,99900.84
2022-10-08T22:47:37.859Z,99901.56
2022-10-08T22:50:41.102Z,99897.91
2022-10-08T22:53:44.862Z,99897.56
2022-10-08T22:56:48.090Z,99890.47
2022-10-08T22:59:51.239Z,99904.75
2022-10-08T23:02:55.947Z,99902.56
2022-10-08T23:06:07.940Z,99896.38
2022-10-08T23:09:13.529Z,99896.28
2022-10-08T23:12:16.709Z,99895.84
2022-10-08T23:15:19.930Z,99898.78
2022-10-08T23:18:24.595Z,99892.94
2022-10-08T23:21:29.000Z,99896.22
2022-10-08T23:24:32.272Z,99903.94
2022-10-08T23:27:35.436Z,99897.81
2022-10-08T23:30:43.359Z,99898.44
2022-10-08T23:33:50.211Z,99900.22
2022-10-08T23:36:53.410Z,99894.13
2022-10-08T23:39:58.031Z,99893.59
2022-10-08T23:43:01.361Z,99894.13
2022-10-08T23:46:04.836Z,99894.72
2022-10-08T23:49:09.713Z,99886.97
2022-10-08T23:52:13.046Z,99888.59
2022-10-08T23:55:16.332Z,99888.75
2022-10-08T23:58:19.787Z,99883.59
